METAR Data
IDs: Format: Raw Decoded Include TAF

Data at: 1301 UTC 26 Feb 2021

LSMP 261250Z 28003KT 230V350 CAVOK 14/02 Q1029 RMK BLU